sensor_id;sensor_type;location;lat;lon;timestamp;temperature;humidity
4960;DHT22;2495;48.200;11.532;2023-03-21T00:33:55;11.70;71.20
4960;DHT22;2495;48.200;11.532;2023-03-21T00:38:56;11.70;70.10
4960;DHT22;2495;48.200;11.532;2023-03-21T00:43:57;11.60;70.10
4960;DHT22;2495;48.200;11.532;2023-03-21T00:48:58;11.50;70.20
4960;DHT22;2495;48.200;11.532;2023-03-21T00:54:00;11.40;70.40
4960;DHT22;2495;48.200;11.532;2023-03-21T00:59:01;11.60;71.50
4960;DHT22;2495;48.200;11.532;2023-03-21T01:04:02;11.70;70.80
4960;DHT22;2495;48.200;11.532;2023-03-21T01:09:04;11.60;70.70
4960;DHT22;2495;48.200;11.532;2023-03-21T01:14:04;11.50;70.90
4960;DHT22;2495;48.200;11.532;2023-03-21T01:19:06;11.40;70.90
4960;DHT22;2495;48.200;11.532;2023-03-21T01:24:07;11.40;71.20
4960;DHT22;2495;48.200;11.532;2023-03-21T01:29:08;11.30;71.40
4960;DHT22;2495;48.200;11.532;2023-03-21T01:34:10;11.20;71.50
4960;DHT22;2495;48.200;11.532;2023-03-21T01:39:11;11.50;72.50
4960;DHT22;2495;48.200;11.532;2023-03-21T01:44:16;11.60;71.80
4960;DHT22;2495;48.200;11.532;2023-03-21T01:54:24;11.80;71.90
4960;DHT22;2495;48.200;11.532;2023-03-21T01:59:40;11.70;71.40
4960;DHT22;2495;48.200;11.532;2023-03-21T02:04:41;11.60;71.90
4960;DHT22;2495;48.200;11.532;2023-03-21T02:09:43;11.70;72.80
4960;DHT22;2495;48.200;11.532;2023-03-21T02:14:43;11.80;72.00
4960;DHT22;2495;48.200;11.532;2023-03-21T02:25:45;11.90;72.30
4960;DHT22;2495;48.200;11.532;2023-03-21T02:37:11;11.70;72.40
4960;DHT22;2495;48.200;11.532;2023-03-21T02:47:36;11.70;73.20
4960;DHT22;2495;48.200;11.532;2023-03-21T02:52:35;11.80;72.90
4960;DHT22;2495;48.200;11.532;2023-03-21T02:57:37;11.60;72.20
4960;DHT22;2495;48.200;11.532;2023-03-21T03:02:38;11.50;73.20
4960;DHT22;2495;48.200;11.532;2023-03-21T03:07:43;11.40;72.80
4960;DHT22;2495;48.200;11.532;2023-03-21T03:17:59;11.40;75.80
4960;DHT22;2495;48.200;11.532;2023-03-21T03:23:21;11.50;74.10
4960;DHT22;2495;48.200;11.532;2023-03-21T03:28:22;11.70;74.50
4960;DHT22;2495;48.200;11.532;2023-03-21T03:33:21;12.10;74.10
4960;DHT22;2495;48.200;11.532;2023-03-21T03:38:22;12.00;73.10
4960;DHT22;2495;48.200;11.532;2023-03-21T03:43:29;11.70;72.90
4960;DHT22;2495;48.200;11.532;2023-03-21T03:48:29;11.60;73.30
4960;DHT22;2495;48.200;11.532;2023-03-21T03:58:33;11.30;73.70
4960;DHT22;2495;48.200;11.532;2023-03-21T04:03:35;11.30;73.60
4960;DHT22;2495;48.200;11.532;2023-03-21T04:08:35;11.50;75.40
4960;DHT22;2495;48.200;11.532;2023-03-21T04:13:36;11.50;74.30
4960;DHT22;2495;48.200;11.532;2023-03-21T04:18:37;11.40;74.10
4960;DHT22;2495;48.200;11.532;2023-03-21T04:23:41;11.20;74.60
4960;DHT22;2495;48.200;11.532;2023-03-21T04:28:45;11.40;75.40
4960;DHT22;2495;48.200;11.532;2023-03-21T04:33:47;11.50;74.60
4960;DHT22;2495;48.200;11.532;2023-03-21T04:38:48;11.40;74.50
4960;DHT22;2495;48.200;11.532;2023-03-21T04:43:49;11.30;74.50
4960;DHT22;2495;48.200;11.532;2023-03-21T04:48:56;11.30;74.70
4960;DHT22;2495;48.200;11.532;2023-03-21T04:54:00;11.40;75.70
4960;DHT22;2495;48.200;11.532;2023-03-21T04:59:04;11.50;74.80
4960;DHT22;2495;48.200;11.532;2023-03-21T05:04:06;11.40;74.40
4960;DHT22;2495;48.200;11.532;2023-03-21T05:09:07;11.40;74.00
4960;DHT22;2495;48.200;11.532;2023-03-21T05:14:10;11.30;74.30
4960;DHT22;2495;48.200;11.532;2023-03-21T05:19:10;11.20;74.00
4960;DHT22;2495;48.200;11.532;2023-03-21T05:24:19;11.10;74.30
4960;DHT22;2495;48.200;11.532;2023-03-21T05:29:18;11.10;75.20
4960;DHT22;2495;48.200;11.532;2023-03-21T05:34:20;11.10;75.00
4960;DHT22;2495;48.200;11.532;2023-03-21T05:39:21;11.20;75.10
4960;DHT22;2495;48.200;11.532;2023-03-21T05:44:23;11.20;75.10
4960;DHT22;2495;48.200;11.532;2023-03-21T05:49:24;11.20;75.40
4960;DHT22;2495;48.200;11.532;2023-03-21T05:54:25;11.20;75.20
4960;DHT22;2495;48.200;11.532;2023-03-21T05:59:27;11.50;76.10
4960;DHT22;2495;48.200;11.532;2023-03-21T06:04:28;11.90;75.70
4960;DHT22;2495;48.200;11.532;2023-03-21T06:09:29;11.90;74.80
4960;DHT22;2495;48.200;11.532;2023-03-21T06:14:31;12.10;75.30
4960;DHT22;2495;48.200;11.532;2023-03-21T06:19:33;12.20;74.50
4960;DHT22;2495;48.200;11.532;2023-03-21T06:24:34;12.40;74.60
4960;DHT22;2495;48.200;11.532;2023-03-21T06:29:36;12.60;74.30
4960;DHT22;2495;48.200;11.532;2023-03-21T06:34:37;12.50;73.20
4960;DHT22;2495;48.200;11.532;2023-03-21T06:39:38;12.20;72.90
4960;DHT22;2495;48.200;11.532;2023-03-21T06:44:40;12.10;73.00
4960;DHT22;2495;48.200;11.532;2023-03-21T06:49:41;12.10;73.00
4960;DHT22;2495;48.200;11.532;2023-03-21T06:54:55;12.10;72.90
4960;DHT22;2495;48.200;11.532;2023-03-21T06:59:56;12.10;72.90
4960;DHT22;2495;48.200;11.532;2023-03-21T07:04:58;12.00;72.80
4960;DHT22;2495;48.200;11.532;2023-03-21T07:09:59;12.30;73.60
4960;DHT22;2495;48.200;11.532;2023-03-21T07:15:01;12.90;73.20
4960;DHT22;2495;48.200;11.532;2023-03-21T07:20:02;13.00;71.30
4960;DHT22;2495;48.200;11.532;2023-03-21T07:25:13;12.80;70.90
4960;DHT22;2495;48.200;11.532;2023-03-21T07:30:14;12.70;71.40
4960;DHT22;2495;48.200;11.532;2023-03-21T07:35:16;12.60;71.10
4960;DHT22;2495;48.200;11.532;2023-03-21T07:40:18;12.60;70.50
4960;DHT22;2495;48.200;11.532;2023-03-21T07:45:19;12.60;70.10
4960;DHT22;2495;48.200;11.532;2023-03-21T07:50:21;12.80;69.90
4960;DHT22;2495;48.200;11.532;2023-03-21T07:55:22;12.80;69.80
4960;DHT22;2495;48.200;11.532;2023-03-21T08:00:24;13.30;70.60
4960;DHT22;2495;48.200;11.532;2023-03-21T08:05:30;13.50;68.60
4960;DHT22;2495;48.200;11.532;2023-03-21T08:10:31;13.40;68.10
4960;DHT22;2495;48.200;11.532;2023-03-21T08:15:32;13.70;68.60
4960;DHT22;2495;48.200;11.532;2023-03-21T08:20:34;13.90;67.60
4960;DHT22;2495;48.200;11.532;2023-03-21T08:25:35;13.90;66.40
4960;DHT22;2495;48.200;11.532;2023-03-21T08:30:36;14.00;66.10
4960;DHT22;2495;48.200;11.532;2023-03-21T08:35:38;14.00;66.40
4960;DHT22;2495;48.200;11.532;2023-03-21T08:40:39;14.40;67.60
4960;DHT22;2495;48.200;11.532;2023-03-21T08:45:41;14.50;66.20
4960;DHT22;2495;48.200;11.532;2023-03-21T08:50:43;14.50;65.30
4960;DHT22;2495;48.200;11.532;2023-03-21T08:55:44;14.50;65.10
4960;DHT22;2495;48.200;11.532;2023-03-21T09:00:45;14.90;65.50
4960;DHT22;2495;48.200;11.532;2023-03-21T09:05:47;14.90;62.50
4960;DHT22;2495;48.200;11.532;2023-03-21T09:10:51;15.20;62.60
4960;DHT22;2495;48.200;11.532;2023-03-21T09:15:50;15.20;61.50
4960;DHT22;2495;48.200;11.532;2023-03-21T09:20:51;15.30;60.90
4960;DHT22;2495;48.200;11.532;2023-03-21T09:25:56;15.60;59.90
4960;DHT22;2495;48.200;11.532;2023-03-21T09:30:58;15.80;60.00
4960;DHT22;2495;48.200;11.532;2023-03-21T09:35:59;16.00;58.80
4960;DHT22;2495;48.200;11.532;2023-03-21T09:41:03;15.90;58.00
4960;DHT22;2495;48.200;11.532;2023-03-21T09:51:11;16.30;58.40
4960;DHT22;2495;48.200;11.532;2023-03-21T09:56:11;16.70;58.70
4960;DHT22;2495;48.200;11.532;2023-03-21T10:01:16;16.60;55.70
4960;DHT22;2495;48.200;11.532;2023-03-21T10:06:23;16.90;55.50
4960;DHT22;2495;48.200;11.532;2023-03-21T10:11:26;17.50;56.00
4960;DHT22;2495;48.200;11.532;2023-03-21T10:16:45;17.90;54.20
4960;DHT22;2495;48.200;11.532;2023-03-21T10:21:46;18.20;53.60
4960;DHT22;2495;48.200;11.532;2023-03-21T10:26:48;18.80;52.70
4960;DHT22;2495;48.200;11.532;2023-03-21T10:31:49;19.60;51.50
4960;DHT22;2495;48.200;11.532;2023-03-21T10:36:50;19.80;49.80
4960;DHT22;2495;48.200;11.532;2023-03-21T10:41:53;20.50;48.90
4960;DHT22;2495;48.200;11.532;2023-03-21T10:46:58;20.60;47.30
4960;DHT22;2495;48.200;11.532;2023-03-21T10:52:01;20.40;46.70
4960;DHT22;2495;48.200;11.532;2023-03-21T10:57:07;20.70;46.70
4960;DHT22;2495;48.200;11.532;2023-03-21T11:02:19;21.60;45.50
4960;DHT22;2495;48.200;11.532;2023-03-21T11:07:18;21.60;44.60
4960;DHT22;2495;48.200;11.532;2023-03-21T11:12:34;22.00;43.30
4960;DHT22;2495;48.200;11.532;2023-03-21T11:17:33;22.30;42.60
4960;DHT22;2495;48.200;11.532;2023-03-21T11:22:37;22.30;42.00
4960;DHT22;2495;48.200;11.532;2023-03-21T11:27:46;22.40;42.30
4960;DHT22;2495;48.200;11.532;2023-03-21T11:32:39;22.60;41.90
4960;DHT22;2495;48.200;11.532;2023-03-21T11:37:42;22.70;41.50
4960;DHT22;2495;48.200;11.532;2023-03-21T11:42:43;23.00;40.00
4960;DHT22;2495;48.200;11.532;2023-03-21T11:47:45;23.10;40.00
4960;DHT22;2495;48.200;11.532;2023-03-21T11:58:35;26.30;37.10
4960;DHT22;2495;48.200;11.532;2023-03-21T12:03:45;26.90;34.40
4960;DHT22;2495;48.200;11.532;2023-03-21T12:14:30;26.90;32.90
4960;DHT22;2495;48.200;11.532;2023-03-21T12:24:59;28.80;30.60
4960;DHT22;2495;48.200;11.532;2023-03-21T12:41:37;27.30;31.50
4960;DHT22;2495;48.200;11.532;2023-03-21T12:46:05;26.90;32.00
4960;DHT22;2495;48.200;11.532;2023-03-21T12:51:07;25.50;32.20
4960;DHT22;2495;48.200;11.532;2023-03-21T12:56:09;24.30;34.10
4960;DHT22;2495;48.200;11.532;2023-03-21T13:01:08;25.20;34.40
4960;DHT22;2495;48.200;11.532;2023-03-21T13:06:11;26.50;32.40
4960;DHT22;2495;48.200;11.532;2023-03-21T13:11:18;26.60;31.00
4960;DHT22;2495;48.200;11.532;2023-03-21T13:16:29;26.30;32.40
4960;DHT22;2495;48.200;11.532;2023-03-21T13:21:49;26.70;32.50
4960;DHT22;2495;48.200;11.532;2023-03-21T13:26:56;26.80;32.40
4960;DHT22;2495;48.200;11.532;2023-03-21T13:31:50;25.90;32.30
4960;DHT22;2495;48.200;11.532;2023-03-21T13:36:51;25.80;33.20
4960;DHT22;2495;48.200;11.532;2023-03-21T13:41:58;25.70;33.20
4960;DHT22;2495;48.200;11.532;2023-03-21T13:47:04;25.90;33.10
4960;DHT22;2495;48.200;11.532;2023-03-21T14:02:31;25.80;32.30
4960;DHT22;2495;48.200;11.532;2023-03-21T14:07:33;25.40;33.00
4960;DHT22;2495;48.200;11.532;2023-03-21T14:12:36;24.30;34.00
4960;DHT22;2495;48.200;11.532;2023-03-21T14:17:35;23.80;34.50
4960;DHT22;2495;48.200;11.532;2023-03-21T14:22:39;23.50;35.20
4960;DHT22;2495;48.200;11.532;2023-03-21T14:27:45;23.30;36.20
4960;DHT22;2495;48.200;11.532;2023-03-21T14:32:45;23.20;37.00
4960;DHT22;2495;48.200;11.532;2023-03-21T14:37:46;22.90;36.00
4960;DHT22;2495;48.200;11.532;2023-03-21T14:42:48;22.50;36.40
4960;DHT22;2495;48.200;11.532;2023-03-21T14:53:15;21.60;38.60
4960;DHT22;2495;48.200;11.532;2023-03-21T14:58:15;21.60;38.50
4960;DHT22;2495;48.200;11.532;2023-03-21T15:03:17;21.50;38.10
4960;DHT22;2495;48.200;11.532;2023-03-21T15:08:19;21.30;38.80
4960;DHT22;2495;48.200;11.532;2023-03-21T15:13:21;21.10;39.70
4960;DHT22;2495;48.200;11.532;2023-03-21T15:18:24;20.80;40.60
4960;DHT22;2495;48.200;11.532;2023-03-21T15:23:46;20.60;41.50
4960;DHT22;2495;48.200;11.532;2023-03-21T15:28:26;20.30;42.30
4960;DHT22;2495;48.200;11.532;2023-03-21T15:33:28;20.50;42.10
4960;DHT22;2495;48.200;11.532;2023-03-21T15:38:35;20.50;42.20
4960;DHT22;2495;48.200;11.532;2023-03-21T15:43:36;20.50;42.10
4960;DHT22;2495;48.200;11.532;2023-03-21T15:48:37;20.50;42.90
4960;DHT22;2495;48.200;11.532;2023-03-21T15:53:39;20.40;42.00
4960;DHT22;2495;48.200;11.532;2023-03-21T15:58:43;20.20;42.20
4960;DHT22;2495;48.200;11.532;2023-03-21T16:03:45;19.90;44.10
4960;DHT22;2495;48.200;11.532;2023-03-21T16:08:47;20.00;43.70
4960;DHT22;2495;48.200;11.532;2023-03-21T16:13:53;20.10;43.70
4960;DHT22;2495;48.200;11.532;2023-03-21T16:18:57;19.90;44.00
4960;DHT22;2495;48.200;11.532;2023-03-21T16:23:58;19.90;43.60
4960;DHT22;2495;48.200;11.532;2023-03-21T16:28:59;19.60;43.50
4960;DHT22;2495;48.200;11.532;2023-03-21T16:34:00;19.30;43.20
4960;DHT22;2495;48.200;11.532;2023-03-21T16:39:06;19.00;43.80
4960;DHT22;2495;48.200;11.532;2023-03-21T16:44:15;18.80;44.70
4960;DHT22;2495;48.200;11.532;2023-03-21T16:49:21;18.60;45.60
4960;DHT22;2495;48.200;11.532;2023-03-21T16:54:21;18.80;46.30
4960;DHT22;2495;48.200;11.532;2023-03-21T16:59:22;19.00;45.30
4960;DHT22;2495;48.200;11.532;2023-03-21T17:04:24;18.80;45.30
4960;DHT22;2495;48.200;11.532;2023-03-21T17:09:25;18.70;46.30
4960;DHT22;2495;48.200;11.532;2023-03-21T17:14:26;18.70;45.90
4960;DHT22;2495;48.200;11.532;2023-03-21T17:19:28;18.70;46.80
4960;DHT22;2495;48.200;11.532;2023-03-21T17:24:30;18.70;46.70
4960;DHT22;2495;48.200;11.532;2023-03-21T18:15:51;17.30;49.90
4960;DHT22;2495;48.200;11.532;2023-03-21T18:21:47;17.10;50.00
4960;DHT22;2495;48.200;11.532;2023-03-21T18:27:30;17.10;50.30
4960;DHT22;2495;48.200;11.532;2023-03-21T18:34:00;17.10;51.10
4960;DHT22;2495;48.200;11.532;2023-03-21T18:40:31;17.40;51.50
4960;DHT22;2495;48.200;11.532;2023-03-21T18:46:35;17.30;51.00
4960;DHT22;2495;48.200;11.532;2023-03-21T18:52:20;17.30;51.80
4960;DHT22;2495;48.200;11.532;2023-03-21T19:04:22;17.20;51.60
4960;DHT22;2495;48.200;11.532;2023-03-21T19:10:26;17.00;51.70
4960;DHT22;2495;48.200;11.532;2023-03-21T19:15:50;16.90;51.70
4960;DHT22;2495;48.200;11.532;2023-03-21T19:27:56;16.70;52.30
4960;DHT22;2495;48.200;11.532;2023-03-21T19:34:00;16.70;52.40
4960;DHT22;2495;48.200;11.532;2023-03-21T19:52:24;16.70;53.70
4960;DHT22;2495;48.200;11.532;2023-03-21T19:58:21;16.80;53.20
4960;DHT22;2495;48.200;11.532;2023-03-21T20:04:14;16.60;53.40
4960;DHT22;2495;48.200;11.532;2023-03-21T20:10:57;16.40;53.90
4960;DHT22;2495;48.200;11.532;2023-03-21T20:16:56;16.20;54.30
4960;DHT22;2495;48.200;11.532;2023-03-21T20:22:41;16.20;54.50
4960;DHT22;2495;48.200;11.532;2023-03-21T20:28:54;16.20;55.10
